Time;durP1;ratioP1;P1;durP2;ratioP2;P2;SDS_P1;SDS_P2;PMS_P1;PMS_P2;Temp;Humidity;BMP_temperature;BMP_pressure;BME280_temperature;BME280_humidity;BME280_pressure;Samples;Min_cycle;Max_cycle;Signal;HPM_P1;HPM_P2
2023/10/18 00:01:00;;;;;;;13.63;9.07;;;4.60;99.90;;;3.94;100.00;96911.50;5017839;28;20030;-40
2023/10/18 00:03:31;;;;;;;14.17;8.90;;;4.60;99.90;;;3.92;100.00;96910.69;5008596;28;20044;-39
2023/10/18 00:06:34;;;;;;;14.50;9.20;;;4.60;99.90;;;3.91;100.00;96906.38;5011334;28;20327;-40
2023/10/18 00:08:58;;;;;;;12.48;9.15;;;4.50;99.90;;;3.90;100.00;96903.78;5011029;28;20041;-39
2023/10/18 00:11:25;;;;;;;12.60;9.20;;;4.60;99.90;;;3.88;100.00;96901.19;5012440;28;20091;-39
2023/10/18 00:13:53;;;;;;;13.85;8.80;;;4.60;99.90;;;3.87;100.00;96898.59;4995485;28;20045;-39
2023/10/18 00:16:21;;;;;;;13.82;8.68;;;4.50;99.90;;;3.88;100.00;96905.56;5012044;28;20039;-39
2023/10/18 00:18:47;;;;;;;13.65;8.73;;;4.50;99.90;;;3.86;100.00;96907.31;5016446;28;20072;-39
2023/10/18 00:21:13;;;;;;;13.15;9.05;;;4.50;99.90;;;3.84;100.00;96902.16;5013548;28;20292;-41
2023/10/18 00:23:39;;;;;;;11.48;8.57;;;4.50;99.90;;;3.81;100.00;96896.97;4999459;28;20116;-39
2023/10/18 00:26:06;;;;;;;11.20;9.10;;;4.50;99.90;;;3.81;100.00;96899.59;5012194;28;20036;-40
2023/10/18 00:28:38;;;;;;;14.25;9.32;;;4.50;99.90;;;3.78;100.00;96895.25;5014531;28;20642;-41
2023/10/18 00:31:18;;;;;;;13.10;8.85;;;4.40;99.90;;;3.76;100.00;96894.44;5016427;28;20029;-38
2023/10/18 00:33:45;;;;;;;12.48;9.02;;;4.40;99.90;;;3.75;100.00;96889.25;5016990;28;20549;-38
2023/10/18 00:36:12;;;;;;;12.02;8.63;;;4.40;99.90;;;3.71;100.00;96887.59;5016444;28;20406;-39
2023/10/18 00:38:41;;;;;;;12.57;8.43;;;4.40;99.90;;;3.66;100.00;96887.69;5018726;28;20029;-39
2023/10/18 00:41:14;;;;;;;12.70;8.48;;;4.40;99.90;;;3.67;100.00;96888.53;5012701;28;20465;-40
2023/10/18 00:43:44;;;;;;;12.02;8.50;;;4.30;99.90;;;3.65;100.00;96880.75;5014469;28;20033;-40
2023/10/18 00:46:10;;;;;;;13.98;9.05;;;4.30;99.90;;;3.64;100.00;96884.22;5017703;28;20372;-40
2023/10/18 00:48:37;;;;;;;12.20;8.18;;;4.30;99.90;;;3.60;100.00;96867.78;5017546;28;20030;-42
2023/10/18 00:51:03;;;;;;;13.25;8.48;;;4.30;99.90;;;3.60;100.00;96870.38;5016983;28;20033;-40
2023/10/18 00:53:33;;;;;;;12.20;8.82;;;4.30;99.90;;;3.49;100.00;96843.66;5014464;28;20032;-40
2023/10/18 00:55:59;;;;;;;13.00;9.13;;;4.30;99.90;;;3.49;100.00;96841.03;5017066;28;20029;-40
2023/10/18 00:58:27;;;;;;;12.75;8.70;;;4.20;99.90;;;3.58;100.00;96861.72;5018756;28;20030;-41
2023/10/18 01:00:56;;;;;;;11.30;8.32;;;4.30;99.90;;;3.47;100.00;96847.19;5017368;28;20032;-40
2023/10/18 01:03:32;;;;;;;12.90;8.50;;;4.20;99.90;;;3.52;100.00;96841.00;5014648;28;20454;-39
2023/10/18 01:06:10;;;;;;;12.77;8.82;;;4.20;99.90;;;3.55;100.00;96850.50;5015421;28;20498;-40
2023/10/18 01:08:37;;;;;;;11.85;8.10;;;4.20;99.90;;;3.55;100.00;96845.28;5006223;28;20628;-40
2023/10/18 01:11:10;;;;;;;11.13;8.20;;;4.20;99.90;;;3.53;100.00;96847.91;5003929;28;20041;-39
2023/10/18 01:13:45;;;;;;;13.75;9.00;;;4.20;99.90;;;3.46;100.00;96830.66;5019570;28;20062;-40
2023/10/18 01:16:20;;;;;;;16.15;8.68;;;4.20;99.90;;;3.56;100.00;96833.97;5016877;28;20102;-39
2023/10/18 01:18:47;;;;;;;13.55;9.05;;;4.30;99.90;;;3.55;100.00;96827.91;5017266;28;20549;-40
2023/10/18 01:21:19;;;;;;;14.70;8.50;;;4.30;99.90;;;3.50;100.00;96810.59;5012747;28;20034;-41
2023/10/18 01:23:56;;;;;;;13.48;9.10;;;4.30;99.90;;;3.60;100.00;96823.44;5017391;28;20513;-39
2023/10/18 01:26:24;;;;;;;13.98;8.65;;;4.30;99.90;;;3.59;100.00;96816.53;5010001;28;20527;-40
2023/10/18 01:28:51;;;;;;;13.60;9.30;;;4.30;99.90;;;3.53;100.00;96816.63;5017123;28;20033;-39
2023/10/18 01:31:18;;;;;;;14.38;9.18;;;4.30;99.90;;;3.50;100.00;96803.66;5015707;28;20037;-39
2023/10/18 01:33:47;;;;;;;13.77;9.35;;;4.30;99.90;;;3.58;100.00;96814.78;5010746;28;20043;-39
2023/10/18 01:36:15;;;;;;;12.40;8.23;;;4.30;99.90;;;3.58;100.00;96814.78;5016128;28;20168;-39
2023/10/18 01:38:44;;;;;;;14.43;9.27;;;4.30;99.90;;;3.56;100.00;96808.75;5012805;28;20503;-39
2023/10/18 01:41:16;;;;;;;12.23;8.52;;;4.30;99.90;;;3.55;100.00;96806.16;5008592;28;20033;-39
2023/10/18 01:43:44;;;;;;;13.43;8.70;;;4.30;99.90;;;3.53;100.00;96805.34;5012750;28;20480;-40
2023/10/18 01:46:13;;;;;;;11.98;8.80;;;4.20;99.90;;;3.51;100.00;96807.97;5013077;28;20033;-40
2023/10/18 01:48:39;;;;;;;14.68;8.88;;;4.20;99.90;;;3.47;100.00;96802.88;5011855;28;20048;-40
2023/10/18 01:51:06;;;;;;;12.70;8.82;;;4.20;99.90;;;3.47;100.00;96805.47;5003526;28;20568;-39
2023/10/18 01:53:37;;;;;;;11.82;8.20;;;4.20;99.90;;;3.43;100.00;96804.66;5016978;28;20437;-39
2023/10/18 01:56:03;;;;;;;12.75;8.70;;;4.10;99.90;;;3.41;100.00;96798.59;5011190;28;20038;-41
2023/10/18 01:58:30;;;;;;;12.25;8.57;;;4.10;99.90;;;3.39;100.00;96792.56;5009929;28;20087;-40
2023/10/18 02:00:56;;;;;;;13.73;8.68;;;4.10;99.90;;;3.33;100.00;96784.84;5011928;28;20030;-39
2023/10/18 02:03:23;;;;;;;13.13;8.68;;;4.00;99.90;;;3.31;100.00;96779.66;5011192;28;20125;-39
2023/10/18 02:05:49;;;;;;;12.30;9.20;;;4.10;99.90;;;3.38;100.00;96788.25;5015502;28;20091;-41
2023/10/18 02:08:15;;;;;;;16.13;10.18;;;4.10;99.90;;;3.29;100.00;96767.56;5014339;28;20030;-40
2023/10/18 02:10:44;;;;;;;14.45;9.77;;;4.00;99.90;;;3.39;100.00;96783.00;5011200;28;20056;-40
2023/10/18 02:13:11;;;;;;;17.25;10.70;;;4.00;99.90;;;3.39;100.00;96784.72;5009737;28;20338;-40
2023/10/18 02:15:39;;;;;;;14.38;10.25;;;4.10;99.90;;;3.41;100.00;96785.56;5008258;28;20096;-39
2023/10/18 02:18:10;;;;;;;14.65;10.77;;;4.10;99.90;;;3.44;100.00;96780.31;5015907;28;20141;-38
2023/10/18 02:20:41;;;;;;;20.88;11.65;;;4.10;99.90;;;3.44;100.00;96772.47;5014721;28;20037;-40
2023/10/18 02:23:14;;;;;;;15.82;10.98;;;4.10;99.90;;;3.40;100.00;96778.66;5011282;28;20052;-41
2023/10/18 02:25:43;;;;;;;23.30;12.05;;;4.10;99.90;;;3.43;100.00;96783.81;4996252;28;20079;-39
2023/10/18 02:28:23;;;;;;;17.77;11.75;;;4.20;99.90;;;3.36;100.00;96777.84;5016209;28;20485;-39
2023/10/18 02:30:58;;;;;;;17.67;10.95;;;4.10;99.90;;;3.43;100.00;96792.47;5005385;28;20496;-39
2023/10/18 02:33:36;;;;;;;16.63;10.25;;;4.10;99.90;;;3.42;100.00;96792.50;5013583;28;20028;-39
2023/10/18 02:36:06;;;;;;;17.98;10.98;;;4.10;99.90;;;3.43;100.00;96786.41;5008672;28;20033;-39
2023/10/18 02:38:33;;;;;;;19.38;11.55;;;4.10;99.90;;;3.45;100.00;96774.22;4997799;28;20034;-39
2023/10/18 02:41:04;;;;;;;16.58;11.25;;;4.10;99.90;;;3.47;100.00;96780.25;5014726;28;20052;-39
2023/10/18 02:43:29;;;;;;;17.02;11.18;;;4.10;99.90;;;3.50;100.00;96774.09;5017038;28;20048;-39
2023/10/18 02:45:55;;;;;;;17.25;11.40;;;4.20;99.90;;;3.52;100.00;96770.59;5013384;28;20029;-39
2023/10/18 02:48:24;;;;;;;16.70;11.65;;;4.20;99.90;;;3.57;100.00;96768.78;5015706;28;20029;-39
2023/10/18 02:50:54;;;;;;;16.33;11.75;;;4.30;99.90;;;3.60;100.00;96760.88;5014020;28;20063;-39
2023/10/18 02:53:20;;;;;;;18.40;11.85;;;4.40;99.90;;;3.68;100.00;96759.84;5015979;28;20533;-39
2023/10/18 02:55:55;;;;;;;17.38;11.65;;;4.40;99.90;;;3.75;100.00;96762.34;4996946;28;20076;-38
2023/10/18 02:58:27;;;;;;;18.55;12.30;;;4.40;99.90;;;3.80;100.00;96765.72;5007520;28;20033;-40
2023/10/18 03:00:55;;;;;;;18.90;12.57;;;4.50;99.90;;;3.86;100.00;96766.44;5014816;28;20037;-39
2023/10/18 03:03:22;;;;;;;17.63;11.02;;;4.50;99.90;;;3.89;100.00;96762.03;5011960;28;20130;-39
2023/10/18 03:05:48;;;;;;;18.90;11.75;;;4.60;99.90;;;3.93;100.00;96762.81;5011504;28;20088;-39
2023/10/18 03:08:16;;;;;;;18.13;12.40;;;4.60;99.90;;;3.95;100.00;96774.13;5015124;28;20034;-38
2023/10/18 03:10:47;;;;;;;16.15;11.77;;;4.60;99.90;;;3.95;100.00;96767.13;5008011;28;20404;-40
2023/10/18 03:13:13;;;;;;;16.83;11.20;;;4.60;99.90;;;3.88;100.00;96749.91;5011431;28;20029;-40
2023/10/18 03:18:25;;;;;;;16.77;11.20;;;4.60;99.90;;;3.92;100.00;96751.53;5007967;28;20060;-40
2023/10/18 03:20:57;;;;;;;17.48;11.90;;;4.60;99.90;;;3.94;100.00;96754.13;5014486;28;20996;-38
2023/10/18 03:23:26;;;;;;;20.35;12.10;;;4.60;99.90;;;3.94;100.00;96748.91;5010331;28;20497;-39
2023/10/18 03:26:07;;;;;;;17.67;11.60;;;4.60;99.90;;;3.89;100.00;96740.31;5006370;28;20501;-40
2023/10/18 03:28:34;;;;;;;19.05;10.93;;;4.60;99.90;;;3.74;100.00;96711.03;5013052;28;20025;-38
2023/10/18 03:31:27;;;;;;;17.67;10.88;;;4.60;99.90;;;3.88;100.00;96743.81;5015982;28;20069;-39
2023/10/18 03:34:04;;;;;;;16.13;10.13;;;4.60;99.90;;;3.83;100.00;96742.16;5015796;28;22090;-41
2023/10/18 03:36:45;;;;;;;15.48;10.15;;;4.50;99.90;;;3.78;100.00;96743.13;5016547;28;20052;-39
2023/10/18 03:39:18;;;;;;;16.05;10.48;;;4.50;99.90;;;3.65;100.00;96721.69;5012869;28;20087;-40
2023/10/18 03:41:46;;;;;;;15.23;9.95;;;4.40;99.90;;;3.70;100.00;96735.47;5012060;28;20382;-39
2023/10/18 03:44:13;;;;;;;13.35;9.98;;;4.40;99.90;;;3.52;100.00;96710.63;5012288;28;20385;-38
2023/10/18 03:46:48;;;;;;;16.60;10.10;;;4.40;99.90;;;3.63;100.00;96739.94;5018714;28;20033;-39
2023/10/18 03:49:33;;;;;;;13.57;9.65;;;4.30;99.90;;;3.61;100.00;96731.31;4999518;28;20078;-40
2023/10/18 03:52:16;;;;;;;15.45;9.98;;;4.30;99.90;;;3.59;100.00;96733.09;5016945;28;20782;-39
2023/10/18 03:55:36;;;;;;;14.93;9.55;;;4.30;99.90;;;3.56;100.00;96737.50;5013488;28;20045;-40
2023/10/18 03:57:41;;;;;;;14.13;9.23;;;4.20;99.90;;;3.55;100.00;96731.44;5017597;28;20056;-40
2023/10/18 04:00:37;;;;;;;14.75;10.00;;;4.20;99.90;;;3.51;100.00;96728.91;5003750;28;20478;-40
2023/10/18 04:02:56;;;;;;;15.07;10.00;;;4.20;99.90;;;3.51;100.00;96732.38;4992206;28;20196;-39
2023/10/18 04:08:16;;;;;;;16.02;9.77;;;4.20;99.90;;;3.42;100.00;96703.88;5014162;28;20086;-39
2023/10/18 04:10:42;;;;;;;15.02;9.68;;;4.20;99.90;;;3.47;100.00;96714.22;5014160;28;20033;-39
2023/10/18 04:13:11;;;;;;;15.45;10.20;;;4.20;99.90;;;3.42;100.00;96719.53;5010732;28;20048;-39
2023/10/18 04:15:45;;;;;;;13.30;9.40;;;4.20;99.90;;;3.43;100.00;96703.84;5013953;28;20393;-39
2023/10/18 04:18:22;;;;;;;14.48;9.68;;;4.10;99.90;;;3.45;100.00;96696.00;5018565;28;20424;-38
2023/10/18 04:20:48;;;;;;;13.18;9.48;;;4.20;99.90;;;3.46;100.00;96683.81;5014092;28;20025;-39
2023/10/18 04:23:15;;;;;;;12.95;9.57;;;4.20;99.90;;;3.46;100.00;96682.06;5016322;28;20552;-40
2023/10/18 04:26:10;;;;;;;14.27;9.82;;;4.20;99.90;;;3.46;100.00;96678.59;5015452;28;20390;-40
2023/10/18 04:28:39;;;;;;;12.98;9.50;;;4.10;99.90;;;3.30;100.00;96652.84;5014729;28;20044;-40
2023/10/18 04:31:08;;;;;;;15.77;9.77;;;4.10;99.90;;;3.47;100.00;96681.19;5015687;28;20116;-39
2023/10/18 04:33:35;;;;;;;17.02;9.70;;;4.20;99.90;;;3.41;100.00;96669.16;5012540;28;20120;-38
2023/10/18 04:36:20;;;;;;;15.48;9.80;;;4.20;99.90;;;3.47;100.00;96683.81;5019856;28;20216;-40
2023/10/18 04:38:47;;;;;;;15.15;9.85;;;4.20;99.90;;;3.48;100.00;96676.81;5017874;28;20080;-39
2023/10/18 04:41:23;;;;;;;15.50;9.82;;;4.20;99.90;;;3.48;100.00;96676.81;5013163;28;20033;-41
2023/10/18 04:46:35;;;;;;;14.50;9.55;;;4.20;99.90;;;3.41;100.00;96652.63;5016339;28;20041;-41
2023/10/18 04:49:16;;;;;;;13.27;8.93;;;4.20;99.90;;;3.49;100.00;96658.56;5012232;28;20094;-38
2023/10/18 04:54:23;;;;;;;13.73;9.18;;;4.20;99.90;;;3.47;100.00;96667.31;5016278;28;20053;-38
2023/10/18 04:56:56;;;;;;;16.05;10.05;;;4.20;99.90;;;3.43;100.00;96669.13;5013769;28;20080;-39
2023/10/18 05:00:11;;;;;;;13.50;9.18;;;4.10;99.90;;;3.41;100.00;96657.84;5014889;28;20041;-37
2023/10/18 05:02:16;;;;;;;16.38;10.15;;;4.10;99.90;;;3.40;100.00;96651.78;5000396;28;20053;-38
2023/10/18 05:04:41;;;;;;;15.70;9.48;;;4.10;99.90;;;3.38;100.00;96639.69;5012771;28;20033;-38
2023/10/18 05:09:41;;;;;;;14.32;9.52;;;4.10;99.90;;;3.36;100.00;96650.13;5004344;28;20579;-39
2023/10/18 05:17:39;;;;;;;;;;;4.00;99.90;;;3.28;100.00;96638.13;5001428;28;20042;-39
2023/10/18 05:22:45;;;;;;;15.07;9.82;;;4.00;99.90;;;3.24;100.00;96634.75;5015867;28;20042;-41
2023/10/18 05:25:21;;;;;;;15.00;9.40;;;4.00;99.90;;;3.25;100.00;96629.50;5011168;28;20028;-39
2023/10/18 05:28:09;;;;;;;14.13;10.13;;;3.90;99.90;;;3.24;100.00;96637.34;5003727;28;20085;-39
2023/10/18 05:36:29;;;;;;;14.93;9.95;;;3.90;99.90;;;3.23;100.00;96641.72;5017623;28;20037;-41
2023/10/18 05:39:16;;;;;;;15.13;10.02;;;3.90;99.90;;;3.25;100.00;96633.88;5020863;28;20186;-38
2023/10/18 05:44:36;;;;;;;17.15;10.35;;;3.90;99.90;;;3.27;100.00;96633.81;4997762;28;20180;-39
2023/10/18 05:47:06;;;;;;;14.95;10.35;;;4.00;99.90;;;3.28;100.00;96640.75;5014335;28;20290;-40
2023/10/18 05:49:40;;;;;;;15.75;9.93;;;4.00;99.90;;;3.29;100.00;96645.09;5011804;28;20225;-39
2023/10/18 05:54:32;;;;;;;16.55;10.45;;;4.00;99.90;;;3.26;100.00;96638.16;5018009;28;20486;-40
2023/10/18 05:56:58;;;;;;;15.93;10.68;;;4.00;99.90;;;3.30;100.00;96637.22;5015388;28;21627;-39
2023/10/18 05:59:33;;;;;;;15.68;11.00;;;4.00;99.90;;;3.32;100.00;96629.34;5015586;28;20044;-39
2023/10/18 06:02:00;;;;;;;17.30;10.82;;;4.00;99.90;;;3.36;100.00;96631.03;5012451;28;21310;-39
2023/10/18 06:04:33;;;;;;;18.02;11.52;;;4.00;99.90;;;3.37;100.00;96625.75;5014805;28;20086;-38
2023/10/18 06:06:59;;;;;;;17.60;12.27;;;4.10;99.90;;;3.39;100.00;96630.94;5011153;28;20077;-39
2023/10/18 06:09:26;;;;;;;18.60;12.05;;;4.10;99.90;;;3.40;100.00;96627.47;5013846;28;20033;-38
2023/10/18 06:11:56;;;;;;;17.38;12.48;;;4.10;99.90;;;3.44;100.00;96634.31;5009750;28;20461;-41
2023/10/18 06:14:25;;;;;;;19.35;12.77;;;4.10;99.90;;;3.38;100.00;96617.06;5010884;28;20532;-40
2023/10/18 06:16:52;;;;;;;18.50;12.10;;;4.20;99.90;;;3.48;100.00;96612.50;5004793;28;20029;-38
2023/10/18 06:19:27;;;;;;;18.17;12.40;;;4.20;99.90;;;3.59;100.00;96620.97;5018582;28;20087;-39
2023/10/18 06:21:59;;;;;;;23.23;13.50;;;4.30;99.90;;;3.66;100.00;96613.00;5011260;28;20366;-38
2023/10/18 06:24:25;;;;;;;;;;;4.40;99.90;;;3.69;100.00;96608.59;5013599;28;20313;-38
2023/10/18 06:26:52;;;;;;;21.60;12.38;;;4.40;99.90;;;3.81;100.00;96613.53;5012946;28;20024;-40
2023/10/18 06:29:24;;;;;;;21.25;12.35;;;4.50;99.90;;;3.85;100.00;96601.28;5014320;28;20396;-40
2023/10/18 06:31:53;;;;;;;16.73;11.57;;;4.60;99.90;;;4.03;100.00;96613.03;5011773;28;20524;-41
2023/10/18 06:34:18;;;;;;;18.48;12.07;;;4.70;99.90;;;4.15;100.00;96601.44;5011091;28;20079;-38
2023/10/18 06:36:49;;;;;;;20.23;12.18;;;4.80;99.90;;;4.30;100.00;96614.09;5012570;28;20033;-40
2023/10/18 06:39:28;;;;;;;18.67;11.80;;;5.00;99.90;;;4.36;100.00;96595.69;5006442;28;20021;-38
2023/10/18 06:41:55;;;;;;;17.17;11.88;;;5.10;99.90;;;4.50;100.00;96597.09;5009048;28;20042;-39
2023/10/18 06:44:29;;;;;;;19.63;12.77;;;5.30;99.90;;;4.66;100.00;96603.63;5010354;28;20060;-39
2023/10/18 06:46:55;;;;;;;18.58;13.07;;;5.40;99.90;;;4.86;100.00;96594.41;5014588;28;20341;-38
2023/10/18 06:49:21;;;;;;;20.50;12.85;;;5.60;99.90;;;4.97;100.00;96593.22;5004731;28;20493;-41
2023/10/18 06:51:50;;;;;;;19.08;12.23;;;5.60;99.90;;;5.08;100.00;96592.91;5008065;28;20053;-38
2023/10/18 06:54:30;;;;;;;25.05;14.55;;;5.80;99.90;;;5.18;100.00;96590.91;5007845;28;20564;-38
2023/10/18 06:56:57;;;;;;;22.10;14.27;;;5.90;99.90;;;5.28;100.00;96589.75;5017094;28;20049;-39
2023/10/18 06:59:27;;;;;;;21.48;13.48;;;6.00;99.90;;;5.38;100.00;96599.94;4998013;28;20021;-40
2023/10/18 07:01:54;;;;;;;18.33;12.05;;;6.10;99.90;;;5.47;100.00;96597.91;5004471;28;20643;-39
2023/10/18 07:04:27;;;;;;;20.65;12.75;;;6.10;99.90;;;5.58;100.00;96594.97;5007461;28;20300;-41
2023/10/18 07:06:57;;;;;;;19.23;12.38;;;6.30;99.90;;;5.50;100.00;96565.56;5008497;28;20033;-40
2023/10/18 07:09:26;;;;;;;19.48;12.73;;;6.40;99.90;;;5.78;100.00;96586.53;5018107;28;20018;-39
2023/10/18 07:11:57;;;;;;;20.40;14.07;;;6.50;99.90;;;5.85;100.00;96585.44;5019397;28;20044;-39
2023/10/18 07:14:26;;;;;;;22.23;14.27;;;6.50;99.90;;;5.95;100.00;96585.13;5014750;28;20034;-39
2023/10/18 07:16:56;;;;;;;22.50;14.32;;;6.60;99.90;;;6.00;100.00;96573.63;5014954;28;20203;-40
2023/10/18 07:21:57;;;;;;;21.30;13.40;;;6.70;99.90;;;6.12;100.00;96585.50;5013212;28;20037;-39
2023/10/18 07:24:32;;;;;;;18.30;12.52;;;6.80;99.90;;;6.19;100.00;96575.66;5010572;28;20029;-41
2023/10/18 07:26:59;;;;;;;17.80;13.50;;;6.90;99.90;;;6.28;100.00;96570.13;5022781;28;20507;-39
2023/10/18 07:29:27;;;;;;;22.20;13.80;;;6.90;99.90;;;6.33;100.00;96570.81;5013183;28;20033;-40
2023/10/18 07:31:53;;;;;;;19.17;13.20;;;7.00;99.90;;;6.42;100.00;96561.81;5015162;28;20041;-38
2023/10/18 07:34:28;;;;;;;22.58;13.30;;;7.00;99.90;;;6.39;100.00;96535.72;5011728;28;20061;-40
2023/10/18 07:36:54;;;;;;;22.65;14.02;;;7.10;99.90;;;6.57;100.00;96547.31;5017102;28;20555;-40
2023/10/18 07:39:26;;;;;;;19.77;12.90;;;7.20;99.90;;;6.68;100.00;96547.81;5014199;28;20045;-40
2023/10/18 07:41:53;;;;;;;20.75;13.60;;;7.30;99.90;;;6.72;100.00;96535.47;5017078;28;20442;-40
2023/10/18 07:44:19;;;;;;;19.45;12.80;;;7.40;99.90;;;6.85;100.00;96541.97;5011696;28;20029;-40
2023/10/18 07:46:45;;;;;;;22.88;14.68;;;7.50;99.90;;;6.87;100.00;96542.75;5014312;28;20037;-40
2023/10/18 07:49:14;;;;;;;21.30;14.05;;;7.50;99.90;;;6.90;100.00;96542.66;5013202;28;20041;-39
2023/10/18 07:51:48;;;;;;;23.70;13.98;;;7.60;99.90;;;7.03;100.00;96533.47;5012130;28;20038;-41
2023/10/18 07:54:15;;;;;;;22.98;13.48;;;7.70;99.90;;;7.15;100.00;96526.03;5011925;28;20497;-39
2023/10/18 07:56:49;;;;;;;22.17;13.55;;;7.80;99.90;;;7.24;100.00;96523.06;5008974;28;20041;-41
2023/10/18 07:59:29;;;;;;;17.30;11.40;;;7.80;99.90;;;7.33;100.00;96511.38;5014490;28;20041;-39
2023/10/18 08:04:47;;;;;;;22.30;13.68;;;8.20;99.90;;;7.73;100.00;96528.19;5012289;28;20039;-39
2023/10/18 08:07:15;;;;;;;21.92;13.23;;;8.40;99.90;;;7.84;100.00;96525.97;5008521;28;20030;-41
2023/10/18 08:09:43;;;;;;;19.50;13.02;;;8.40;99.90;;;7.89;100.00;96513.53;5008745;28;20478;-40
2023/10/18 08:15:13;;;;;;;13.45;10.85;;;8.60;99.90;;;8.05;100.00;96529.53;5012983;28;20053;-40
2023/10/18 08:22:50;;;;;;;15.90;10.90;;;8.70;99.90;;;8.27;100.00;96528.63;5011916;28;20364;-40
2023/10/18 08:25:23;;;;;;;15.82;10.57;;;8.80;99.90;;;8.34;100.00;96540.59;5007005;28;20128;-39
2023/10/18 08:27:51;;;;;;;15.88;11.15;;;8.90;99.90;;;8.36;100.00;96544.88;5015755;28;20033;-37
2023/10/18 08:33:03;;;;;;;16.98;11.70;;;9.00;99.90;;;8.43;100.00;96549.91;4999471;28;20123;-39
2023/10/18 08:35:29;;;;;;;18.17;12.02;;;9.00;99.90;;;8.39;100.00;96534.22;5010178;28;20557;-37
2023/10/18 08:37:55;;;;;;;18.38;12.32;;;9.00;99.90;;;8.44;100.00;96533.22;5008752;28;20386;-39
2023/10/18 08:40:36;;;;;;;19.30;12.88;;;9.00;99.90;;;8.43;100.00;96523.63;5013204;28;20037;-39
2023/10/18 08:43:17;;;;;;;16.13;10.87;;;9.00;99.90;;;8.36;100.00;96516.00;5004206;28;20037;-38
2023/10/18 08:45:48;;;;;;;15.43;10.45;;;9.00;99.90;;;8.41;100.00;96521.03;4996648;28;20361;-40
2023/10/18 08:48:27;;;;;;;18.20;11.68;;;9.00;99.90;;;8.43;100.00;96529.72;5012806;28;20021;-38
2023/10/18 08:50:59;;;;;;;15.82;11.23;;;9.00;99.90;;;8.46;100.00;96528.75;5016565;28;20033;-39
2023/10/18 08:53:31;;;;;;;17.23;11.93;;;9.00;99.90;;;8.47;100.00;96527.81;5014802;28;20041;-39
2023/10/18 08:55:57;;;;;;;21.20;12.55;;;9.00;99.90;;;8.47;100.00;96525.19;5003372;28;20117;-38
2023/10/18 08:58:28;;;;;;;18.27;12.15;;;9.00;99.90;;;8.56;100.00;96515.16;5000590;28;20103;-40
2023/10/18 09:03:23;;;;;;;15.45;10.85;;;9.30;99.90;;;8.91;100.00;96510.13;5007532;28;20540;-40
2023/10/18 09:05:52;;;;;;;17.25;11.15;;;9.40;99.90;;;9.07;100.00;96506.81;5009265;28;20552;-39
2023/10/18 09:08:23;;;;;;;21.63;12.90;;;9.60;99.90;;;9.14;100.00;96500.38;5013467;28;20045;-39
2023/10/18 09:10:55;;;;;;;20.00;11.48;;;9.80;99.90;;;9.36;100.00;96510.75;5015488;28;20397;-39
2023/10/18 09:18:21;;;;;;;17.98;12.35;;;10.10;99.90;;;9.64;100.00;96498.94;5012314;28;20432;-39
2023/10/18 09:20:47;;;;;;;14.98;10.95;;;10.20;99.90;;;9.68;100.00;96500.50;5006932;28;20119;-38
2023/10/18 09:23:20;;;;;;;18.45;11.23;;;10.20;99.90;;;9.74;100.00;96495.78;4992382;28;20041;-39
2023/10/18 09:25:50;;;;;;;16.27;10.50;;;10.30;99.90;;;9.86;100.00;96493.47;5011366;28;20049;-38
2023/10/18 09:28:35;;;;;;;17.33;11.27;;;10.40;99.90;;;10.00;100.00;96479.66;5009237;28;20040;-39
2023/10/18 09:31:11;;;;;;;14.60;11.15;;;10.50;99.90;;;10.17;100.00;96477.00;5012368;28;20132;-38
2023/10/18 09:33:51;;;;;;;16.98;10.90;;;10.60;99.90;;;10.26;100.00;96471.28;5003154;28;20029;-40
2023/10/18 09:36:19;;;;;;;19.63;11.20;;;10.80;99.90;;;10.26;100.00;96467.78;4989539;28;20083;-39
2023/10/18 09:38:48;;;;;;;18.13;11.35;;;10.80;99.90;;;10.24;100.00;96459.97;5016144;28;20071;-39
2023/10/18 09:41:15;;;;;;;16.30;11.27;;;10.70;99.90;;;10.17;100.00;96449.81;5009595;28;20034;-39
2023/10/18 09:43:41;;;;;;;16.98;11.65;;;10.70;99.90;;;10.18;100.00;96462.91;5016357;28;20033;-38
2023/10/18 09:46:10;;;;;;;17.35;10.60;;;10.70;99.90;;;10.13;100.00;96468.41;5013907;28;20042;-41
2023/10/18 09:48:41;;;;;;;18.67;11.95;;;10.70;99.90;;;10.16;100.00;96464.78;5011168;28;20041;-39
2023/10/18 09:51:10;;;;;;;18.02;11.77;;;10.70;99.90;;;10.20;100.00;96462.84;5005910;28;20374;-38
2023/10/18 09:53:51;;;;;;;15.25;11.65;;;10.70;99.90;;;10.27;100.00;96457.19;5015794;28;20043;-39
2023/10/18 09:56:33;;;;;;;19.17;12.35;;;10.80;99.90;;;10.24;100.00;96461.75;5005221;28;20033;-38
2023/10/18 09:59:08;;;;;;;17.70;11.20;;;10.80;99.90;;;10.22;100.00;96460.97;5004504;28;20037;-41
2023/10/18 10:04:12;;;;;;;18.50;11.73;;;10.70;99.90;;;10.18;100.00;96462.06;5009494;28;20061;-40
2023/10/18 10:06:45;;;;;;;19.05;12.15;;;10.70;99.90;;;10.10;100.00;96444.88;4987695;28;20528;-40
2023/10/18 10:09:13;;;;;;;14.57;10.50;;;10.70;99.90;;;10.22;100.00;96455.72;5010993;28;20029;-38
2023/10/18 10:11:47;;;;;;;14.43;10.27;;;10.70;99.90;;;10.28;100.00;96448.34;5005259;28;20025;-38
2023/10/18 10:14:16;;;;;;;16.63;10.70;;;10.80;99.90;;;10.30;100.00;96440.34;5004554;28;20224;-39
2023/10/18 10:16:57;;;;;;;17.25;11.20;;;10.90;99.90;;;10.35;100.00;96438.38;5009209;28;20504;-38
2023/10/18 10:19:31;;;;;;;17.65;10.65;;;10.90;99.90;;;10.44;100.00;96437.88;5015040;28;20036;-38
2023/10/18 10:22:04;;;;;;;21.10;10.88;;;11.00;99.90;;;10.56;100.00;96432.94;5012359;28;20060;-39
2023/10/18 10:24:42;;;;;;;13.80;10.23;;;11.10;99.90;;;10.73;100.00;96418.84;4998121;28;20039;-40
2023/10/18 10:27:27;;;;;;;15.63;9.63;;;11.30;99.90;;;10.88;100.00;96424.16;5015977;28;20694;-38
2023/10/18 10:30:25;;;;;;;20.63;10.60;;;11.40;99.90;;;10.96;100.00;96409.69;5014848;28;20515;-40
2023/10/18 10:32:58;;;;;;;21.35;12.38;;;11.60;99.90;;;11.15;100.00;96420.13;5014683;28;20041;-38
2023/10/18 10:35:25;;;;;;;16.08;11.45;;;11.70;99.90;;;11.32;100.00;96417.38;5007100;28;20404;-38
2023/10/18 10:38:20;;;;;;;16.75;11.18;;;11.90;99.90;;;11.61;100.00;96409.59;5012982;28;20120;-39
2023/10/18 10:40:49;;;;;;;17.10;11.10;;;12.10;99.90;;;11.78;100.00;96391.00;5015467;28;20225;-38
2023/10/18 10:43:18;;;;;;;15.55;10.57;;;12.50;99.90;;;12.26;95.34;96413.81;5000948;28;20121;-40
2023/10/18 10:48:18;;;;;;;17.85;9.80;;;13.10;99.90;;;12.73;91.39;96392.44;5011813;28;20025;-40
2023/10/18 10:50:50;;;;;;;17.73;10.75;;;13.30;99.90;;;12.91;89.80;96381.66;5017607;28;20053;-39
2023/10/18 10:53:45;;;;;;;15.93;10.20;;;13.50;99.90;;;13.03;90.37;96385.31;5011858;28;20087;-39
2023/10/18 10:56:30;;;;;;;14.98;9.23;;;13.60;99.90;;;13.17;85.17;96375.59;5013232;28;20030;-39
2023/10/18 11:01:39;;;;;;;13.23;8.68;;;13.90;99.90;;;13.46;84.67;96367.59;5006790;28;20128;-39
2023/10/18 11:04:24;;;;;;;14.52;8.95;;;14.10;99.90;;;13.75;83.18;96362.19;5010751;28;20394;-40
2023/10/18 11:06:57;;;;;;;12.48;8.10;;;14.20;99.90;;;13.97;77.68;96371.34;4994838;28;20037;-41
2023/10/18 11:09:32;;;;;;;12.07;7.80;;;14.40;99.90;;;14.20;76.67;96380.41;5009910;28;20039;-41
2023/10/18 11:12:07;;;;;;;12.40;8.48;;;14.60;99.90;;;14.31;71.12;96385.84;5018119;28;20041;-40
2023/10/18 11:14:37;;;;;;;12.13;7.65;;;14.80;99.90;;;14.38;67.56;96381.81;5010211;28;20465;-41
2023/10/18 11:17:09;;;;;;;9.38;7.05;;;14.90;99.90;;;14.31;70.42;96364.63;5010705;28;20442;-39
2023/10/18 11:19:40;;;;;;;11.70;7.95;;;14.80;99.90;;;14.24;72.17;96363.34;5008339;28;20033;-40
2023/10/18 11:22:07;;;;;;;15.40;8.05;;;14.80;99.90;;;14.09;73.19;96349.34;5013564;28;20290;-39
2023/10/18 11:24:34;;;;;;;12.82;7.75;;;14.70;99.90;;;14.10;73.28;96346.59;5011153;28;20038;-40
2023/10/18 11:27:02;;;;;;;12.45;7.40;;;14.70;99.90;;;14.18;71.43;96350.50;5013280;28;20068;-40
2023/10/18 11:29:28;;;;;;;9.32;6.30;;;14.70;99.90;;;14.24;71.75;96347.44;5010515;28;20045;-39
2023/10/18 11:31:58;;;;;;;9.15;5.88;;;14.70;99.90;;;14.30;71.97;96339.03;5011785;28;20085;-41
2023/10/18 11:34:25;;;;;;;11.23;6.57;;;14.80;99.90;;;14.29;72.95;96332.91;5004239;28;20705;-40